Time;durP1;ratioP1;P1;durP2;ratioP2;P2;SDS_P1;SDS_P2;PMS_P1;PMS_P2;Temp;Humidity;BMP_temperature;BMP_pressure;BME280_temperature;BME280_humidity;BME280_pressure;Samples;Min_cycle;Max_cycle;Signal;HPM_P1;HPM_P2
2022/08/28 00:01:04;;;;;;;11.82;2.70;;;17.30;99.90;;;;;;4994178;28;20438;-85
2022/08/28 00:03:31;;;;;;;11.27;3.00;;;17.30;99.90;;;;;;4989590;28;20104;-85
2022/08/28 00:05:58;;;;;;;8.88;2.30;;;17.20;99.90;;;;;;4995160;28;20045;-85
2022/08/28 00:08:25;;;;;;;14.80;2.80;;;17.30;99.90;;;;;;4995036;28;20037;-85
2022/08/28 00:10:52;;;;;;;9.60;2.58;;;17.30;99.90;;;;;;4991296;28;20065;-85
2022/08/28 00:13:20;;;;;;;10.52;2.67;;;17.20;99.90;;;;;;4990998;28;20030;-85
2022/08/28 00:15:49;;;;;;;9.93;2.65;;;17.20;99.90;;;;;;4995719;28;20105;-85
2022/08/28 00:18:15;;;;;;;10.90;2.92;;;17.10;99.90;;;;;;5006936;28;20077;-85
2022/08/28 00:20:41;;;;;;;8.20;2.70;;;17.10;99.90;;;;;;4993983;28;20030;-85
2022/08/28 00:23:07;;;;;;;8.32;2.80;;;17.10;99.90;;;;;;4991451;28;20042;-85
2022/08/28 00:25:34;;;;;;;8.63;2.60;;;17.10;99.90;;;;;;4999292;28;20030;-85
2022/08/28 00:28:03;;;;;;;9.13;2.65;;;17.10;99.90;;;;;;4995142;28;20057;-85
2022/08/28 00:30:30;;;;;;;12.68;3.60;;;17.10;99.90;;;;;;5007351;28;20026;-85
2022/08/28 00:33:00;;;;;;;11.93;3.03;;;17.00;99.90;;;;;;4987112;28;20038;-85
2022/08/28 00:35:26;;;;;;;9.85;3.20;;;17.00;99.90;;;;;;4986852;28;20030;-85
2022/08/28 00:37:53;;;;;;;10.35;3.63;;;17.00;99.90;;;;;;4995085;28;20035;-85
2022/08/28 00:40:21;;;;;;;9.68;2.90;;;16.90;99.90;;;;;;4994643;28;20026;-85
2022/08/28 00:42:47;;;;;;;10.73;3.13;;;16.80;99.90;;;;;;4999307;28;20129;-85
2022/08/28 00:45:15;;;;;;;11.02;2.80;;;16.80;99.90;;;;;;4996042;28;20030;-84
2022/08/28 00:47:41;;;;;;;13.75;3.10;;;16.80;99.90;;;;;;4993056;28;20030;-85
2022/08/28 00:50:11;;;;;;;12.30;2.85;;;16.70;99.90;;;;;;4990615;28;20022;-85
2022/08/28 00:52:37;;;;;;;11.70;3.28;;;16.70;99.90;;;;;;4982995;28;20063;-85
2022/08/28 00:55:12;;;;;;;11.45;3.00;;;16.60;99.90;;;;;;4985618;28;20046;-85
2022/08/28 00:57:43;;;;;;;15.15;4.03;;;16.70;99.90;;;;;;4993205;28;20035;-85
2022/08/28 01:00:18;;;;;;;13.77;2.97;;;16.60;99.90;;;;;;4989440;28;20022;-85
2022/08/28 01:02:44;;;;;;;14.68;3.50;;;16.50;99.90;;;;;;4990414;28;20041;-85
2022/08/28 01:05:12;;;;;;;10.93;3.30;;;16.50;99.90;;;;;;4986849;28;20030;-85
2022/08/28 01:07:39;;;;;;;11.48;3.20;;;16.40;99.90;;;;;;4992251;28;20110;-85
2022/08/28 01:10:08;;;;;;;10.57;3.17;;;16.40;99.90;;;;;;4995153;28;20057;-85
2022/08/28 01:12:34;;;;;;;12.53;3.43;;;16.40;99.90;;;;;;4984886;28;20058;-85
2022/08/28 01:15:09;;;;;;;14.00;3.47;;;16.30;99.90;;;;;;4994847;28;20474;-85
2022/08/28 01:17:36;;;;;;;11.88;3.33;;;16.30;99.90;;;;;;4991282;28;20691;-85
2022/08/28 01:20:25;;;;;;;12.50;3.30;;;16.20;99.90;;;;;;4994192;28;20121;-85
2022/08/28 01:23:12;;;;;;;12.05;2.90;;;16.10;99.90;;;;;;4986151;28;20513;-85
2022/08/28 01:25:39;;;;;;;13.65;3.40;;;16.00;99.90;;;;;;4993101;28;20022;-85
2022/08/28 01:28:09;;;;;;;11.80;3.50;;;16.00;99.90;;;;;;4994218;28;20030;-85
2022/08/28 01:30:35;;;;;;;13.25;3.10;;;15.80;99.90;;;;;;4989442;28;20125;-85
2022/08/28 01:33:00;;;;;;;12.18;3.20;;;15.70;99.90;;;;;;4988823;28;20557;-85
2022/08/28 01:35:31;;;;;;;13.57;3.65;;;15.60;99.90;;;;;;4993529;28;20053;-85
2022/08/28 01:37:56;;;;;;;;;;;15.50;99.90;;;;;;5002139;28;20030;-85
2022/08/28 01:40:45;;;;;;;12.85;3.30;;;15.50;99.90;;;;;;4993551;28;19940;-85
2022/08/28 01:43:17;;;;;;;12.88;3.67;;;15.40;99.90;;;;;;4994082;28;20030;-85
2022/08/28 01:45:46;;;;;;;11.65;3.95;;;15.30;99.90;;;;;;4992926;28;20039;-85
2022/08/28 01:48:14;;;;;;;12.15;3.42;;;15.30;99.90;;;;;;4998229;28;20027;-85
2022/08/28 01:50:40;;;;;;;12.05;3.55;;;15.30;99.90;;;;;;4991281;28;20741;-85
2022/08/28 01:53:07;;;;;;;17.38;3.92;;;15.40;99.90;;;;;;4984989;28;20022;-85
2022/08/28 01:55:35;;;;;;;13.35;4.07;;;15.40;99.90;;;;;;4995823;28;20105;-85
2022/08/28 01:58:02;;;;;;;18.85;4.45;;;15.50;99.90;;;;;;4993181;28;20100;-85
2022/08/28 02:00:28;;;;;;;16.35;3.78;;;15.50;99.90;;;;;;4986715;28;20026;-85
2022/08/28 02:02:57;;;;;;;9.70;3.65;;;15.60;99.90;;;;;;4995222;28;20026;-85
2022/08/28 02:05:26;;;;;;;12.65;3.80;;;15.50;99.90;;;;;;4990578;28;20031;-85
2022/08/28 02:07:52;;;;;;;11.10;3.30;;;15.50;99.90;;;;;;4985856;28;20058;-84
2022/08/28 02:10:21;;;;;;;17.05;3.35;;;15.60;99.90;;;;;;4985906;28;20031;-85
2022/08/28 02:12:48;;;;;;;13.60;3.47;;;15.50;99.90;;;;;;4990350;28;20034;-85
2022/08/28 02:15:13;;;;;;;23.40;3.92;;;15.40;99.90;;;;;;4984454;28;20045;-85
2022/08/28 02:17:39;;;;;;;19.25;4.03;;;15.30;99.90;;;;;;4993212;28;20031;-85
2022/08/28 02:20:06;;;;;;;12.52;3.70;;;15.30;99.90;;;;;;4992973;28;20497;-85
2022/08/28 02:22:33;;;;;;;13.02;3.70;;;15.30;99.90;;;;;;5002035;28;20176;-84
2022/08/28 02:24:59;;;;;;;13.50;4.07;;;15.30;99.90;;;;;;4993404;28;20030;-84
2022/08/28 02:27:24;;;;;;;16.63;4.22;;;15.20;99.90;;;;;;4993326;28;20022;-85
2022/08/28 02:29:50;;;;;;;14.05;3.70;;;15.20;99.90;;;;;;4992179;28;20141;-85
2022/08/28 02:32:17;;;;;;;17.45;3.90;;;15.20;99.90;;;;;;5007466;28;20082;-85
2022/08/28 02:34:43;;;;;;;13.63;4.40;;;15.10;99.90;;;;;;4991135;28;20033;-85
2022/08/28 02:37:12;;;;;;;17.48;3.63;;;15.00;99.90;;;;;;4994319;28;20037;-85
2022/08/28 02:39:38;;;;;;;13.57;3.97;;;14.90;99.90;;;;;;4991873;28;20082;-85
2022/08/28 02:42:05;;;;;;;13.48;3.70;;;14.80;99.90;;;;;;4993824;28;20034;-85
2022/08/28 02:44:30;;;;;;;13.27;3.78;;;14.70;99.90;;;;;;4992695;28;20113;-85
2022/08/28 02:46:56;;;;;;;11.88;3.80;;;14.70;99.90;;;;;;4993909;28;20073;-85
2022/08/28 02:49:22;;;;;;;14.70;4.35;;;14.60;99.90;;;;;;4991400;28;20038;-85
2022/08/28 02:51:49;;;;;;;16.08;4.47;;;14.60;99.90;;;;;;4992475;28;20117;-85
2022/08/28 02:54:14;;;;;;;11.77;3.80;;;14.60;99.90;;;;;;4989582;28;20430;-85
2022/08/28 02:56:40;;;;;;;14.98;4.65;;;14.60;99.90;;;;;;4993229;28;20090;-85
2022/08/28 02:59:06;;;;;;;15.93;4.00;;;14.60;99.90;;;;;;4994230;28;20394;-85
2022/08/28 03:01:32;;;;;;;13.85;4.30;;;14.50;99.90;;;;;;4995329;28;20038;-85
2022/08/28 03:04:01;;;;;;;14.85;4.10;;;14.50;99.90;;;;;;5015914;28;20030;-84
2022/08/28 03:06:28;;;;;;;20.55;4.53;;;14.60;99.90;;;;;;4996816;28;20050;-85
2022/08/28 03:08:54;;;;;;;14.70;4.07;;;14.70;99.90;;;;;;4993649;28;20035;-85
2022/08/28 03:11:20;;;;;;;11.35;3.65;;;14.60;99.90;;;;;;4991710;28;20082;-85
2022/08/28 03:13:46;;;;;;;14.35;3.78;;;14.60;99.90;;;;;;4994221;28;20054;-85
2022/08/28 03:16:12;;;;;;;19.77;4.13;;;14.60;99.90;;;;;;4997886;28;20054;-84
2022/08/28 03:18:38;;;;;;;13.13;3.95;;;14.60;99.90;;;;;;4997344;28;20041;-85
2022/08/28 03:21:05;;;;;;;15.98;4.53;;;14.60;99.90;;;;;;4996548;28;20056;-85
2022/08/28 03:23:30;;;;;;;13.25;3.70;;;14.50;99.90;;;;;;4995900;28;20030;-85
2022/08/28 03:26:01;;;;;;;14.65;3.88;;;14.60;99.90;;;;;;4995679;28;20027;-85
2022/08/28 03:28:29;;;;;;;;;;;14.60;99.90;;;;;;4993639;28;20109;-85
2022/08/28 03:30:56;;;;;;;13.95;4.03;;;14.60;99.90;;;;;;4994687;28;19944;-85
2022/08/28 03:33:23;;;;;;;14.38;3.78;;;14.60;99.90;;;;;;4989454;28;20040;-85
2022/08/28 03:35:49;;;;;;;16.08;4.43;;;14.60;99.90;;;;;;4996033;28;20117;-85
2022/08/28 03:38:15;;;;;;;12.43;4.13;;;14.60;99.90;;;;;;4992853;28;20062;-85
2022/08/28 03:40:43;;;;;;;15.15;4.25;;;14.60;99.90;;;;;;4997072;28;20157;-85
2022/08/28 03:43:14;;;;;;;16.02;3.67;;;14.60;99.90;;;;;;4996348;28;20022;-85
2022/08/28 03:45:40;;;;;;;12.60;4.43;;;14.60;99.90;;;;;;4994967;28;20046;-85
2022/08/28 03:48:07;;;;;;;17.58;4.20;;;14.50;99.90;;;;;;4994203;28;20031;-85
2022/08/28 03:50:33;;;;;;;14.32;4.38;;;14.50;99.90;;;;;;4995673;28;20027;-85
2022/08/28 03:52:59;;;;;;;13.82;4.05;;;14.50;99.90;;;;;;4994809;28;20493;-85
2022/08/28 03:55:25;;;;;;;13.65;4.55;;;14.50;99.90;;;;;;4997272;28;20049;-85
2022/08/28 03:57:51;;;;;;;15.82;4.70;;;14.40;99.90;;;;;;4997547;28;20430;-85
2022/08/28 04:00:19;;;;;;;14.57;4.78;;;14.40;99.90;;;;;;4997578;28;20445;-85
2022/08/28 04:02:45;;;;;;;15.55;4.88;;;14.40;99.90;;;;;;4990361;28;20113;-85
2022/08/28 04:05:12;;;;;;;15.45;4.53;;;14.40;99.90;;;;;;4996720;28;20026;-85
2022/08/28 04:07:38;;;;;;;17.33;4.20;;;14.40;99.90;;;;;;5009882;28;20050;-84
2022/08/28 04:10:05;;;;;;;14.13;4.22;;;14.30;99.90;;;;;;4994942;28;20023;-85
2022/08/28 04:12:30;;;;;;;14.75;4.55;;;14.30;99.90;;;;;;4991935;28;20068;-84
2022/08/28 04:14:56;;;;;;;15.57;4.63;;;14.40;99.90;;;;;;4996834;28;20554;-84
2022/08/28 04:17:22;;;;;;;13.98;4.95;;;14.30;99.90;;;;;;4985182;28;20041;-84
2022/08/28 04:19:51;;;;;;;21.40;4.60;;;14.30;99.90;;;;;;4979888;28;20027;-85
2022/08/28 04:22:17;;;;;;;15.70;4.22;;;14.30;99.90;;;;;;4994529;28;20109;-84
2022/08/28 04:24:43;;;;;;;18.10;4.90;;;14.30;99.90;;;;;;4990830;28;20549;-85
2022/08/28 04:27:08;;;;;;;15.63;4.63;;;14.30;99.90;;;;;;4993626;28;20068;-85
2022/08/28 04:29:34;;;;;;;15.55;4.38;;;14.30;99.90;;;;;;4989031;28;20070;-85
2022/08/28 04:32:01;;;;;;;15.52;4.50;;;14.30;99.90;;;;;;4987625;28;20038;-85
2022/08/28 04:34:26;;;;;;;13.48;4.05;;;14.30;99.90;;;;;;4984423;28;20026;-84
2022/08/28 04:36:53;;;;;;;16.55;3.90;;;14.30;99.90;;;;;;4993110;28;20384;-84
2022/08/28 04:39:19;;;;;;;13.25;4.55;;;14.40;99.90;;;;;;4985046;28;20038;-85
2022/08/28 04:41:44;;;;;;;14.98;4.22;;;14.40;99.90;;;;;;4991380;28;20023;-84
2022/08/28 04:44:10;;;;;;;15.48;4.47;;;14.40;99.90;;;;;;4999562;28;20099;-84
2022/08/28 04:46:36;;;;;;;14.73;3.83;;;14.50;99.90;;;;;;4992687;28;21011;-85
2022/08/28 04:49:03;;;;;;;17.25;4.72;;;14.60;99.90;;;;;;4990716;28;20027;-85
2022/08/28 04:51:29;;;;;;;16.33;4.28;;;14.60;99.90;;;;;;4989631;28;20383;-85
2022/08/28 04:53:56;;;;;;;14.00;4.05;;;14.60;99.90;;;;;;5002338;28;20066;-85
2022/08/28 04:56:22;;;;;;;16.60;4.35;;;14.60;99.90;;;;;;4990457;28;20530;-85
2022/08/28 04:58:48;;;;;;;14.52;4.10;;;14.70;99.90;;;;;;4991685;28;20394;-84
2022/08/28 05:01:23;;;;;;;16.88;4.18;;;14.70;99.90;;;;;;4990952;28;20023;-84
2022/08/28 05:03:56;;;;;;;13.90;3.83;;;14.80;99.90;;;;;;4990476;28;20031;-85
2022/08/28 05:06:25;;;;;;;13.73;3.78;;;14.80;99.90;;;;;;4989536;28;20096;-85
2022/08/28 05:08:58;;;;;;;14.30;3.55;;;14.80;99.90;;;;;;4985969;28;20031;-85
2022/08/28 05:11:25;;;;;;;15.43;4.25;;;14.80;99.90;;;;;;4992385;28;20157;-85
2022/08/28 05:13:51;;;;;;;12.85;3.30;;;14.90;99.90;;;;;;4994228;28;20026;-84
2022/08/28 05:16:19;;;;;;;21.50;3.92;;;15.00;99.90;;;;;;4996270;28;20517;-85
2022/08/28 05:18:45;;;;;;;13.23;3.70;;;15.00;99.90;;;;;;4995010;28;20056;-84
2022/08/28 05:21:21;;;;;;;13.40;3.75;;;15.00;99.90;;;;;;4993212;28;20062;-85
2022/08/28 05:23:52;;;;;;;10.65;3.50;;;14.90;99.90;;;;;;4990396;28;20052;-84
2022/08/28 05:26:19;;;;;;;14.32;3.90;;;15.00;99.90;;;;;;4991534;28;20023;-85
2022/08/28 05:28:46;;;;;;;14.40;3.40;;;15.10;99.90;;;;;;4989030;28;20050;-84
2022/08/28 05:31:17;;;;;;;10.30;3.08;;;15.10;99.90;;;;;;4993627;28;20026;-84
2022/08/28 05:33:47;;;;;;;14.00;4.03;;;15.20;99.90;;;;;;4989776;28;20065;-85
2022/08/28 05:36:15;;;;;;;16.80;3.65;;;15.20;99.90;;;;;;4994352;28;20037;-84
2022/08/28 05:38:41;;;;;;;10.00;3.25;;;15.10;99.90;;;;;;4993240;28;20041;-84
2022/08/28 05:41:07;;;;;;;10.38;3.28;;;15.20;99.90;;;;;;4991278;28;20034;-84
2022/08/28 05:43:33;;;;;;;10.82;3.25;;;15.10;99.90;;;;;;4993917;28;20029;-84
2022/08/28 05:46:02;;;;;;;12.63;3.17;;;15.10;99.90;;;;;;4993487;28;20455;-84
2022/08/28 05:48:30;;;;;;;16.10;3.30;;;15.20;99.90;;;;;;4993414;28;20420;-84
2022/08/28 05:50:57;;;;;;;11.75;3.30;;;15.20;99.90;;;;;;4993637;28;20030;-84
2022/08/28 05:53:24;;;;;;;12.27;3.65;;;15.20;99.90;;;;;;4994277;28;20106;-84
2022/08/28 05:55:53;;;;;;;20.83;4.32;;;15.30;99.90;;;;;;4985572;28;20018;-84
2022/08/28 05:58:31;;;;;;;12.00;3.42;;;15.30;99.90;;;;;;4993757;28;20026;-85
2022/08/28 06:01:16;;;;;;;15.13;3.92;;;15.20;99.90;;;;;;4990723;28;20041;-83
2022/08/28 06:03:55;;;;;;;14.98;3.80;;;15.10;99.90;;;;;;4986845;28;20034;-82
2022/08/28 06:06:23;;;;;;;14.70;3.40;;;15.10;99.90;;;;;;4993201;28;20200;-83
2022/08/28 06:09:00;;;;;;;13.90;3.25;;;15.20;99.90;;;;;;4989280;28;20628;-83
2022/08/28 06:11:27;;;;;;;14.68;3.67;;;15.30;99.90;;;;;;4991890;28;20030;-83
2022/08/28 06:13:53;;;;;;;12.25;3.08;;;15.40;99.90;;;;;;4992420;28;20105;-83
2022/08/28 06:16:19;;;;;;;12.35;3.10;;;15.50;99.90;;;;;;4992642;28;20044;-82
2022/08/28 06:18:45;;;;;;;11.63;3.40;;;15.80;99.90;;;;;;4992302;28;20030;-83
2022/08/28 06:21:11;;;;;;;12.38;3.35;;;16.00;99.90;;;;;;4990296;28;20053;-82
2022/08/28 06:23:37;;;;;;;17.25;3.83;;;16.20;99.90;;;;;;4989439;28;20018;-83
2022/08/28 06:26:05;;;;;;;8.98;3.10;;;16.30;99.90;;;;;;4991902;28;20088;-83
2022/08/28 06:28:32;;;;;;;10.32;3.42;;;16.30;99.90;;;;;;4991107;28;20029;-82
2022/08/28 06:31:02;;;;;;;10.07;3.40;;;16.20;99.90;;;;;;4990900;28;20042;-82
2022/08/28 06:33:28;;;;;;;15.43;3.20;;;16.10;99.90;;;;;;4992201;28;20077;-82
2022/08/28 06:35:55;;;;;;;15.15;2.97;;;16.10;99.90;;;;;;4991727;28;20328;-83
2022/08/28 06:38:23;;;;;;;11.50;3.22;;;16.10;99.90;;;;;;4994297;28;20113;-83
2022/08/28 06:40:52;;;;;;;13.05;3.72;;;16.10;99.90;;;;;;4989330;28;20034;-83
2022/08/28 06:43:20;;;;;;;12.35;3.22;;;16.10;99.90;;;;;;4980815;28;20027;-82
2022/08/28 06:45:48;;;;;;;12.98;3.22;;;16.10;99.90;;;;;;4992136;28;20029;-83
2022/08/28 06:48:15;;;;;;;17.10;3.22;;;16.10;99.90;;;;;;4991171;28;20410;-83
2022/08/28 06:50:43;;;;;;;14.30;3.65;;;16.00;99.90;;;;;;4989154;28;20023;-83
2022/08/28 06:53:12;;;;;;;13.57;3.63;;;16.00;99.90;;;;;;4990343;28;20482;-83
2022/08/28 06:55:38;;;;;;;15.30;2.90;;;15.90;99.90;;;;;;4984733;28;20031;-83
2022/08/28 06:58:05;;;;;;;15.15;3.53;;;15.90;99.90;;;;;;4990618;28;20030;-83
2022/08/28 07:00:31;;;;;;;18.88;3.75;;;15.80;99.90;;;;;;4985698;28;20081;-83
2022/08/28 07:02:58;;;;;;;12.95;3.03;;;15.70;99.90;;;;;;4991072;28;20030;-82
2022/08/28 07:05:24;;;;;;;10.93;2.80;;;15.80;99.90;;;;;;4990518;28;20442;-83
2022/08/28 07:07:50;;;;;;;16.90;3.10;;;15.80;99.90;;;;;;4997634;28;20031;-82
2022/08/28 07:10:16;;;;;;;13.85;2.92;;;15.80;99.90;;;;;;4984330;28;20023;-82
2022/08/28 07:12:43;;;;;;;12.25;2.70;;;16.00;99.90;;;;;;4990004;28;20034;-83
2022/08/28 07:15:09;;;;;;;11.07;3.15;;;16.30;99.90;;;;;;4990012;28;20031;-82
2022/08/28 07:17:35;;;;;;;12.60;2.63;;;16.60;99.90;;;;;;4992374;28;20117;-82
2022/08/28 07:20:02;;;;;;;13.63;3.40;;;16.90;99.90;;;;;;4992635;28;20084;-83
2022/08/28 07:22:28;;;;;;;14.10;3.25;;;17.00;99.90;;;;;;4991264;28;20029;-83
2022/08/28 07:24:55;;;;;;;10.38;2.55;;;17.00;99.90;;;;;;4991527;28;20023;-83
2022/08/28 07:27:23;;;;;;;11.48;2.85;;;17.10;99.90;;;;;;4993554;28;20113;-82
2022/08/28 07:29:52;;;;;;;12.82;2.63;;;17.10;99.90;;;;;;4988706;28;20026;-82
2022/08/28 07:32:20;;;;;;;8.40;2.70;;;16.90;99.90;;;;;;4990209;28;20034;-82
2022/08/28 07:34:46;;;;;;;11.95;2.42;;;17.00;99.90;;;;;;4988490;28;20022;-82
2022/08/28 07:37:12;;;;;;;12.85;2.70;;;17.00;99.90;;;;;;4988657;28;20034;-82
2022/08/28 07:39:41;;;;;;;10.30;2.22;;;17.00;99.90;;;;;;4987956;28;20077;-83
2022/08/28 07:42:07;;;;;;;11.10;2.78;;;17.20;99.90;;;;;;4991153;28;20006;-83
2022/08/28 07:44:48;;;;;;;15.70;2.72;;;17.30;99.90;;;;;;4990988;28;20564;-83
2022/08/28 07:47:15;;;;;;;10.48;2.58;;;17.30;99.90;;;;;;4991250;28;20054;-83
2022/08/28 07:49:41;;;;;;;10.65;2.75;;;17.60;99.90;;;;;;5001879;28;20764;-83
2022/08/28 07:52:07;;;;;;;10.45;2.65;;;17.90;99.90;;;;;;4992741;28;20076;-83
2022/08/28 07:54:34;;;;;;;10.32;2.47;;;18.20;99.90;;;;;;4991052;28;20045;-83
2022/08/28 07:57:02;;;;;;;10.18;2.40;;;18.20;99.90;;;;;;4987071;28;20033;-83
2022/08/28 07:59:28;;;;;;;12.25;2.22;;;18.40;99.90;;;;;;5001413;28;20018;-83
2022/08/28 08:01:54;;;;;;;9.32;2.25;;;18.80;99.90;;;;;;4987046;28;20045;-83
2022/08/28 08:04:22;;;;;;;9.43;2.65;;;18.90;99.90;;;;;;4983174;28;20076;-83
2022/08/28 08:06:48;;;;;;;13.75;2.85;;;19.20;99.90;;;;;;4984753;28;20053;-83
2022/08/28 08:09:16;;;;;;;9.85;2.13;;;19.30;99.90;;;;;;5000381;28;20648;-83
2022/08/28 08:11:43;;;;;;;9.32;2.30;;;19.70;99.90;;;;;;5000498;28;20154;-83
2022/08/28 08:14:08;;;;;;;8.65;2.15;;;19.50;99.90;;;;;;4982670;28;20027;-83
2022/08/28 08:16:38;;;;;;;9.07;2.53;;;19.00;99.90;;;;;;4991844;28;20035;-83
2022/08/28 08:19:05;;;;;;;;;;;19.10;99.90;;;;;;4990043;28;20033;-83
2022/08/28 08:21:31;;;;;;;12.38;2.20;;;19.50;99.90;;;;;;4987477;28;19933;-82
2022/08/28 08:23:58;;;;;;;13.32;2.05;;;20.10;99.90;;;;;;4986991;28;20515;-82
2022/08/28 08:26:26;;;;;;;7.25;2.10;;;20.80;99.90;;;;;;4988823;28;20026;-83
2022/08/28 08:28:53;;;;;;;9.43;2.30;;;21.60;99.90;;;;;;4988344;28;20034;-83
2022/08/28 08:31:20;;;;;;;11.63;2.20;;;22.20;99.90;;;;;;4991090;28;20036;-83
2022/08/28 08:33:51;;;;;;;12.32;2.33;;;21.80;99.90;;;;;;4991812;28;20026;-83
2022/08/28 08:36:20;;;;;;;7.88;2.25;;;22.60;99.90;;;;;;4990019;28;20022;-83
2022/08/28 08:38:46;;;;;;;10.48;2.20;;;22.50;99.90;;;;;;4990397;28;20034;-83
2022/08/28 08:41:28;;;;;;;10.02;2.10;;;22.20;99.90;;;;;;4990012;28;20060;-83
2022/08/28 08:44:08;;;;;;;10.70;2.20;;;23.10;99.30;;;;;;4987821;28;20023;-83
2022/08/28 08:46:48;;;;;;;11.93;2.65;;;22.70;98.60;;;;;;4983089;28;20062;-82
2022/08/28 08:49:20;;;;;;;9.77;2.15;;;20.90;99.90;;;;;;4989228;28;20061;-84
2022/08/28 08:52:00;;;;;;;10.82;2.20;;;20.30;99.90;;;;;;4981342;28;20034;-82
2022/08/28 08:54:26;;;;;;;11.70;2.38;;;19.80;99.90;;;;;;4985873;28;20031;-84
2022/08/28 08:56:54;;;;;;;10.23;2.13;;;19.70;99.90;;;;;;4976788;28;20062;-84
2022/08/28 08:59:24;;;;;;;10.40;2.17;;;20.10;99.90;;;;;;4980809;28;20065;-84
2022/08/28 09:01:54;;;;;;;11.07;2.40;;;20.60;99.90;;;;;;4985428;28;20041;-84
2022/08/28 09:04:53;;;;;;;10.15;2.40;;;20.00;99.90;;;;;;5001505;28;20034;-84
2022/08/28 09:07:56;;;;;;;8.23;1.88;;;20.80;99.90;;;;;;4978123;28;20088;-85
2022/08/28 09:10:23;;;;;;;8.57;2.40;;;21.00;99.90;;;;;;4980252;28;20463;-85
2022/08/28 09:13:30;;;;;;;10.15;2.20;;;21.10;99.90;;;;;;4991560;28;20030;-85
2022/08/28 09:15:56;;;;;;;9.10;1.98;;;22.50;99.10;;;;;;4990504;28;20784;-83
2022/08/28 09:18:33;;;;;;;16.50;2.75;;;23.40;98.70;;;;;;4992011;28;20057;-83
2022/08/28 09:20:59;;;;;;;7.85;2.05;;;23.60;97.80;;;;;;4994053;28;20033;-83
2022/08/28 09:23:27;;;;;;;9.85;2.20;;;23.40;97.90;;;;;;4987505;28;20022;-84
2022/08/28 09:25:59;;;;;;;9.00;1.88;;;24.70;96.20;;;;;;4983392;28;20042;-83
2022/08/28 09:28:29;;;;;;;7.50;1.92;;;23.60;96.30;;;;;;4983929;28;20033;-84
2022/08/28 09:31:00;;;;;;;10.75;2.67;;;21.80;97.90;;;;;;4981455;28;20018;-84
2022/08/28 09:33:34;;;;;;;13.07;2.42;;;21.60;97.80;;;;;;4998526;28;20038;-84
2022/08/28 09:36:24;;;;;;;8.88;2.13;;;22.30;98.60;;;;;;4987457;28;20030;-84
2022/08/28 09:39:18;;;;;;;8.15;2.05;;;23.50;96.60;;;;;;4987402;28;20047;-88
2022/08/28 09:45:13;;;;;;;10.65;2.13;;;25.90;93.20;;;;;;4992779;28;20049;-86
2022/08/28 09:47:44;;;;;;;8.55;2.40;;;25.00;93.30;;;;;;4989158;28;20030;-86
2022/08/28 09:50:24;;;;;;;9.68;2.10;;;24.70;93.00;;;;;;4989201;28;20030;-87
2022/08/28 09:52:52;;;;;;;10.68;2.25;;;24.30;94.10;;;;;;5013388;28;20118;-87
2022/08/28 09:55:36;;;;;;;12.25;2.63;;;23.50;95.50;;;;;;4992518;28;20035;-87
2022/08/28 09:58:02;;;;;;;12.23;2.22;;;25.00;93.50;;;;;;4995427;28;20034;-87
2022/08/28 10:00:35;;;;;;;9.57;2.03;;;25.30;92.70;;;;;;4996182;28;20050;-87
2022/08/28 10:03:20;;;;;;;8.18;2.13;;;26.50;91.60;;;;;;4996708;28;20022;-86
2022/08/28 10:06:20;;;;;;;10.23;2.17;;;26.60;90.30;;;;;;5001755;28;20489;-84
2022/08/28 10:08:56;;;;;;;13.50;2.58;;;26.80;90.10;;;;;;4988721;28;20026;-88
2022/08/28 10:11:57;;;;;;;10.02;2.42;;;26.40;91.00;;;;;;4994324;28;20125;-86
2022/08/28 10:15:11;;;;;;;10.18;2.05;;;25.80;90.40;;;;;;4988803;28;20038;-88
2022/08/28 10:17:44;;;;;;;14.18;2.63;;;24.10;92.80;;;;;;4978054;28;20187;-85
2022/08/28 10:20:20;;;;;;;9.15;1.73;;;23.80;93.70;;;;;;5007288;28;20030;-86
2022/08/28 10:22:56;;;;;;;8.98;1.90;;;24.40;92.10;;;;;;4992505;28;20027;-88
2022/08/28 10:25:45;;;;;;;9.25;2.33;;;24.40;91.30;;;;;;5012666;28;20022;-86
2022/08/28 10:28:33;;;;;;;7.95;2.60;;;24.20;91.40;;;;;;4995821;28;20046;-86
2022/08/28 10:31:04;;;;;;;6.97;2.00;;;24.60;92.30;;;;;;4987894;28;20026;-86
2022/08/28 10:33:30;;;;;;;7.63;2.03;;;24.80;91.80;;;;;;4990524;28;20026;-86
2022/08/28 10:36:06;;;;;;;11.30;2.22;;;24.90;92.30;;;;;;5005363;28;20007;-86
2022/08/28 10:38:43;;;;;;;6.80;2.05;;;25.00;90.60;;;;;;4987399;28;20031;-86
2022/08/28 10:41:27;;;;;;;7.03;2.05;;;25.50;90.70;;;;;;4993023;28;20058;-84
2022/08/28 10:43:54;;;;;;;5.97;1.80;;;25.90;90.00;;;;;;4991251;28;20493;-85
2022/08/28 10:46:44;;;;;;;6.00;1.67;;;26.60;89.00;;;;;;4989384;28;20026;-85
2022/08/28 10:49:14;;;;;;;9.27;2.15;;;26.90;88.00;;;;;;4980788;28;20023;-84
2022/08/28 10:51:51;;;;;;;;;;;26.10;87.60;;;;;;4987336;28;20042;-85
2022/08/28 10:54:39;;;;;;;10.07;2.33;;;26.20;89.00;;;;;;5006945;28;19910;-84
2022/08/28 10:57:33;;;;;;;11.27;2.15;;;26.80;86.60;;;;;;4984656;28;20041;-84
2022/08/28 11:00:04;;;;;;;8.38;2.17;;;26.20;86.60;;;;;;4989533;28;20142;-84
2022/08/28 11:02:30;;;;;;;11.27;2.90;;;26.00;87.60;;;;;;4984805;28;20796;-86
2022/08/28 11:04:56;;;;;;;11.65;2.65;;;23.90;90.60;;;;;;4990785;28;20026;-85
2022/08/28 11:07:33;;;;;;;8.35;2.30;;;22.80;92.10;;;;;;4991045;28;20846;-85
2022/08/28 11:10:18;;;;;;;8.13;2.45;;;23.40;91.80;;;;;;4990063;28;20101;-85
2022/08/28 11:12:45;;;;;;;9.45;2.20;;;25.40;90.90;;;;;;4987738;28;20046;-85
2022/08/28 11:15:25;;;;;;;6.05;1.95;;;27.00;87.10;;;;;;4991466;28;20026;-85
2022/08/28 11:17:59;;;;;;;7.57;2.05;;;26.90;86.80;;;;;;4989781;28;20125;-85
2022/08/28 11:20:28;;;;;;;11.30;2.05;;;26.90;84.40;;;;;;4996334;28;20057;-86
2022/08/28 11:23:19;;;;;;;8.57;2.00;;;27.00;83.70;;;;;;4998670;28;20059;-85
2022/08/28 11:25:50;;;;;;;8.90;2.05;;;27.90;83.90;;;;;;4997075;28;20491;-85
2022/08/28 11:28:35;;;;;;;7.85;1.92;;;28.60;81.60;;;;;;4993742;28;20046;-86
2022/08/28 11:31:04;;;;;;;9.10;1.90;;;28.40;82.30;;;;;;4994705;28;20045;-85
2022/08/28 11:33:51;;;;;;;8.95;2.28;;;28.70;80.80;;;;;;4997994;28;20161;-85
2022/08/28 11:36:22;;;;;;;10.13;2.38;;;29.10;81.00;;;;;;4992628;28;20030;-85
2022/08/28 11:38:51;;;;;;;7.10;1.90;;;27.70;81.20;;;;;;4995507;28;20018;-86
2022/08/28 11:41:27;;;;;;;7.97;2.25;;;27.40;80.80;;;;;;4996855;28;20101;-85
2022/08/28 11:44:09;;;;;;;7.10;1.85;;;27.90;81.80;;;;;;4994629;28;20398;-85
2022/08/28 11:46:38;;;;;;;8.85;2.22;;;28.40;80.20;;;;;;4993184;28;20356;-86
2022/08/28 11:49:33;;;;;;;7.53;2.03;;;28.90;78.70;;;;;;4990760;28;20027;-85
2022/08/28 11:52:43;;;;;;;7.22;1.98;;;27.90;80.90;;;;;;4983279;28;20069;-85
2022/08/28 11:55:41;;;;;;;7.50;2.40;;;29.50;78.20;;;;;;4989852;28;20058;-85
2022/08/28 11:58:19;;;;;;;10.05;5.00;;;30.50;75.40;;;;;;5008904;28;20084;-85
2022/08/28 12:01:04;;;;;;;9.35;2.53;;;29.20;76.60;;;;;;4995369;28;20134;-86
2022/08/28 12:03:56;;;;;;;41.38;25.92;;;28.30;76.80;;;;;;4993039;28;20030;-86
2022/08/28 12:06:44;;;;;;;7.55;1.95;;;29.50;76.70;;;;;;4984171;28;20582;-85
2022/08/28 12:09:32;;;;;;;21.42;13.98;;;30.30;74.20;;;;;;4984858;28;20026;-85
2022/08/28 12:12:03;;;;;;;32.20;20.83;;;30.70;73.90;;;;;;4990238;28;20034;-85
2022/08/28 12:14:30;;;;;;;18.73;8.20;;;31.10;73.40;;;;;;4989637;28;20697;-85
2022/08/28 12:16:58;;;;;;;10.52;4.43;;;29.90;73.10;;;;;;4990345;28;20838;-84
2022/08/28 12:19:35;;;;;;;9.93;2.53;;;29.30;74.50;;;;;;5009067;28;20030;-85
2022/08/28 12:22:12;;;;;;;10.10;3.08;;;29.80;73.70;;;;;;4992553;28;20029;-85
2022/08/28 12:25:05;;;;;;;8.88;3.45;;;31.30;73.00;;;;;;4990410;28;20038;-84
2022/08/28 12:27:37;;;;;;;8.10;2.00;;;31.70;71.00;;;;;;4989632;28;20093;-85
2022/08/28 12:30:03;;;;;;;8.20;1.80;;;29.00;72.60;;;;;;4993694;28;20035;-84
2022/08/28 12:32:58;;;;;;;8.40;2.45;;;29.60;73.50;;;;;;4985773;28;20065;-85
2022/08/28 12:35:26;;;;;;;8.35;2.33;;;28.90;74.40;;;;;;4988662;28;20117;-84
2022/08/28 12:37:52;;;;;;;7.95;1.88;;;29.40;74.80;;;;;;4992873;28;20034;-85
2022/08/28 12:40:18;;;;;;;6.72;1.83;;;30.10;73.00;;;;;;5011538;28;20022;-85
2022/08/28 12:42:51;;;;;;;8.55;1.70;;;30.50;71.50;;;;;;4990535;28;20041;-84
2022/08/28 12:45:33;;;;;;;7.30;1.92;;;29.70;72.20;;;;;;4995718;28;20015;-85
2022/08/28 12:48:01;;;;;;;9.23;1.98;;;29.90;71.50;;;;;;4995267;28;20045;-85
2022/08/28 12:50:35;;;;;;;8.32;2.03;;;29.70;70.90;;;;;;4992450;28;20018;-85
2022/08/28 12:53:03;;;;;;;6.97;1.80;;;31.10;71.30;;;;;;4995932;28;20034;-85
2022/08/28 12:55:30;;;;;;;10.50;1.93;;;31.00;70.10;;;;;;5004836;28;20046;-84
2022/08/28 12:57:55;;;;;;;6.80;1.83;;;30.60;70.70;;;;;;4992230;28;20277;-85
2022/08/28 13:00:25;;;;;;;7.55;1.77;;;30.60;70.60;;;;;;4991559;28;20082;-85
2022/08/28 13:02:54;;;;;;;7.90;1.80;;;30.50;69.20;;;;;;4994364;28;20031;-85